Bookmark and Share
Track history (hours):
 

Rising Eagle

Last reported at 2014-Apr-13 13:20 UTC. Time now 2014-Apr-16 05:20 UTC.
Position N 25°56' E 054°36'.

Length 167 m; draft 9.2 m.

Type: Cargo ship. MMSI: 376369000.

NotesDate/timePositionNaut miles runAvg speedWind from/ knotsBaromVisibWave heightAir tempDewpointWater temp
2014-Apr-13 13:20N 25°56' E 054°36'1013.3
2014-Apr-13 12:33N 26°00' E 054°25'1313.0
2014-Apr-13 11:33N 26°05' E 054°12'1312.7
2014-Apr-13 10:31N 26°09' E 053°58'1312.7
2014-Apr-13 09:30N 26°13' E 053°44'1213.1
2014-Apr-13 08:33N 26°18' E 053°32'1313.1
2014-Apr-13 07:33N 26°25' E 053°19'1513.2
2014-Apr-13 06:25N 26°34' E 053°06'2513.6
2014-Apr-13 04:33N 26°49' E 052°43'1414.0
2014-Apr-13 03:33N 26°57' E 052°30'1413.3
2014-Apr-13 02:31N 26°57' E 052°15'1513.5
2014-Apr-13 01:22N 26°57' E 051°57'1113.5
2014-Apr-13 00:33N 26°57' E 051°45'1413.5
2014-Apr-12 23:32N 26°57' E 051°29'1413.7
2014-Apr-12 22:32N 26°56' E 051°14'1513.7
2014-Apr-12 21:27N 26°55' E 050°57'1813.5
2014-Apr-12 20:09N 26°50' E 050°39'1113.6
2014-Apr-12 19:19N 26°46' E 050°27'1011.3
2014-Apr-12 18:26N 26°38' E 050°20'9 9.9
2014-Apr-12 17:33N 26°34' E 050°11'  

Dump ship's entire track history

sailing weather and tide predictions

Rising Eagle — J8B4538 — position and weather